createdAt,value
2023-04-16T00:00:24.479Z,4.68
2023-04-16T00:04:26.365Z,5.05
2023-04-16T00:08:28.221Z,4.32
2023-04-16T00:12:29.933Z,3.28
2023-04-16T00:16:32.079Z,3.58
2023-04-16T00:20:33.912Z,3.38
2023-04-16T00:24:35.788Z,3.50
2023-04-16T00:28:37.538Z,5.75
2023-04-16T00:32:39.372Z,5.05
2023-04-16T00:36:41.115Z,3.22
2023-04-16T00:40:42.933Z,3.08
2023-04-16T00:44:44.619Z,3.33
2023-04-16T00:48:46.696Z,4.00
2023-04-16T00:52:49.027Z,3.05
2023-04-16T00:56:51.571Z,6.47
2023-04-16T01:00:53.366Z,6.95
2023-04-16T01:04:55.352Z,7.40
2023-04-16T01:08:57.034Z,8.30
2023-04-16T01:12:58.923Z,11.10
2023-04-16T01:17:01.601Z,10.50
2023-04-16T01:21:04.657Z,9.90
2023-04-16T01:25:07.172Z,5.88
2023-04-16T01:29:09.308Z,5.05
2023-04-16T01:33:12.418Z,3.60
2023-04-16T01:37:14.237Z,4.30
2023-04-16T01:41:15.982Z,4.53
2023-04-16T01:45:17.792Z,3.40
2023-04-16T01:49:19.544Z,2.55
2023-04-16T01:53:21.248Z,6.10
2023-04-16T01:57:23.006Z,4.78
2023-04-16T02:01:25.049Z,4.47
2023-04-16T02:05:26.985Z,4.63
2023-04-16T02:09:28.661Z,4.60
2023-04-16T02:13:30.553Z,3.35
2023-04-16T02:17:32.353Z,3.15
2023-04-16T02:21:44.991Z,3.88
2023-04-16T02:25:47.595Z,2.83
2023-04-16T02:29:50.850Z,2.97
2023-04-16T02:33:53.020Z,2.50
2023-04-16T02:37:55.652Z,2.50
2023-04-16T02:41:58.007Z,2.50
2023-04-16T02:45:59.835Z,3.03
2023-04-16T02:50:01.588Z,3.08
2023-04-16T02:54:03.601Z,4.00
2023-04-16T02:58:06.452Z,3.13
2023-04-16T03:02:08.227Z,2.83
2023-04-16T03:06:10.043Z,2.40
2023-04-16T03:10:12.336Z,2.90
2023-04-16T03:14:14.336Z,4.82
2023-04-16T03:18:16.684Z,7.57
2023-04-16T03:22:18.934Z,7.70
2023-04-16T03:26:21.849Z,3.90
2023-04-16T03:30:25.043Z,5.03
2023-04-16T03:34:27.248Z,3.88
2023-04-16T03:38:29.306Z,3.63
2023-04-16T03:42:33.017Z,2.88
2023-04-16T03:46:35.015Z,2.72
2023-04-16T03:50:36.903Z,2.60
2023-04-16T03:54:41.269Z,4.82
2023-04-16T03:58:54.788Z,6.43
2023-04-16T04:02:57.536Z,4.55
2023-04-16T04:06:59.816Z,4.97
2023-04-16T04:11:03.018Z,4.35
2023-04-16T04:15:07.400Z,4.80
2023-04-16T04:19:09.688Z,6.38
2023-04-16T04:23:11.817Z,6.80
2023-04-16T04:27:14.038Z,8.40
2023-04-16T04:31:17.307Z,8.88
2023-04-16T04:35:21.182Z,4.57
2023-04-16T04:39:24.156Z,9.45
2023-04-16T04:43:26.140Z,7.25
2023-04-16T04:47:28.234Z,10.85
2023-04-16T04:51:31.968Z,7.03
2023-04-16T04:55:33.903Z,8.00
2023-04-16T04:59:36.204Z,8.60
2023-04-16T05:03:38.602Z,10.38
2023-04-16T05:07:41.065Z,12.43
2023-04-16T05:11:43.021Z,11.23
2023-04-16T05:15:45.780Z,7.47
2023-04-16T05:19:47.515Z,11.52
2023-04-16T05:23:49.278Z,13.55
2023-04-16T05:27:50.967Z,11.70
2023-04-16T05:31:52.869Z,11.85
2023-04-16T05:35:54.584Z,11.25
2023-04-16T05:39:56.313Z,7.05
2023-04-16T05:43:58.073Z,7.10
2023-04-16T05:47:59.796Z,5.45
2023-04-16T05:52:01.903Z,3.22
2023-04-16T05:56:03.715Z,9.15
2023-04-16T06:00:06.184Z,7.68
2023-04-16T06:04:13.986Z,9.23
2023-04-16T06:08:15.947Z,9.50
2023-04-16T06:12:17.665Z,8.25
2023-04-16T06:16:19.379Z,5.43
2023-04-16T06:20:21.312Z,4.70
2023-04-16T06:24:23.173Z,5.05
2023-04-16T06:28:24.934Z,5.97
2023-04-16T06:32:26.937Z,7.70
2023-04-16T06:36:29.157Z,7.13
2023-04-16T06:40:30.938Z,6.63
2023-04-16T06:44:32.695Z,6.25
2023-04-16T06:48:34.418Z,5.22
2023-04-16T06:52:36.438Z,5.90
2023-04-16T06:56:38.121Z,4.60
2023-04-16T07:00:39.818Z,4.40
2023-04-16T07:04:41.533Z,7.10
2023-04-16T07:08:43.256Z,9.10
2023-04-16T07:12:45.006Z,13.50
2023-04-16T07:16:46.793Z,9.32
2023-04-16T07:20:48.842Z,11.38
2023-04-16T07:24:50.702Z,10.32
2023-04-16T07:28:52.403Z,7.80
2023-04-16T07:32:55.776Z,13.07
2023-04-16T07:36:57.536Z,10.35
2023-04-16T07:40:59.373Z,8.20
2023-04-16T07:45:01.229Z,7.38
2023-04-16T07:49:02.998Z,10.32
2023-04-16T07:53:05.944Z,6.40
2023-04-16T07:57:07.594Z,5.63
2023-04-16T08:01:09.306Z,4.60
2023-04-16T08:05:12.536Z,4.70
2023-04-16T08:09:14.299Z,4.22
2023-04-16T08:13:15.982Z,3.38
2023-04-16T08:17:17.715Z,5.68
2023-04-16T08:21:19.438Z,6.28
2023-04-16T08:25:22.805Z,3.88
2023-04-16T08:29:26.312Z,4.60
2023-04-16T08:33:28.019Z,3.65
2023-04-16T08:37:29.737Z,3.72
2023-04-16T08:41:34.273Z,2.70
2023-04-16T08:45:36.834Z,2.22
2023-04-16T08:49:44.947Z,2.85
2023-04-16T08:53:53.354Z,2.65
2023-04-16T08:57:58.710Z,2.20
2023-04-16T09:02:00.803Z,2.92
2023-04-16T09:06:04.417Z,2.72
2023-04-16T09:10:08.261Z,2.20
2023-04-16T09:14:11.289Z,2.53
2023-04-16T09:18:13.141Z,3.70
2023-04-16T09:22:14.942Z,3.22
2023-04-16T09:26:16.975Z,3.30
2023-04-16T09:30:26.302Z,2.63
2023-04-16T09:34:28.003Z,2.63
2023-04-16T09:38:49.768Z,4.45
2023-04-16T09:42:52.233Z,5.07
2023-04-16T09:46:53.927Z,5.38
2023-04-16T09:50:56.279Z,3.85
2023-04-16T09:54:59.884Z,4.05
2023-04-16T09:59:01.696Z,3.92
2023-04-16T10:03:05.784Z,3.72
2023-04-16T10:07:07.801Z,3.85
2023-04-16T10:11:09.938Z,4.03
2023-04-16T10:15:11.651Z,3.50
2023-04-16T10:19:14.209Z,4.55
2023-04-16T10:23:16.099Z,4.88
2023-04-16T10:27:19.342Z,3.33
2023-04-16T10:31:21.629Z,3.20
2023-04-16T10:35:25.687Z,3.58
2023-04-16T10:39:28.936Z,3.67
2023-04-16T10:43:33.378Z,3.60
2023-04-16T10:47:40.359Z,3.25
2023-04-16T10:56:05.587Z,4.03
2023-04-16T11:00:23.127Z,3.00
2023-04-16T11:04:25.080Z,3.33
2023-04-16T11:08:27.044Z,3.45
2023-04-16T11:12:38.899Z,3.55
2023-04-16T11:16:40.764Z,5.82
2023-04-16T11:20:42.561Z,3.00
2023-04-16T11:24:45.933Z,3.00
2023-04-16T11:28:47.638Z,2.30
2023-04-16T11:32:49.367Z,2.30
2023-04-16T11:36:52.257Z,2.30
2023-04-16T11:40:54.177Z,3.25
2023-04-16T11:44:57.610Z,2.63
2023-04-16T11:48:59.893Z,1.80
2023-04-16T11:53:06.404Z,3.38
2023-04-16T11:57:08.256Z,2.50
2023-04-16T12:01:10.195Z,2.83
2023-04-16T12:05:33.918Z,2.70
2023-04-16T12:09:40.006Z,3.10
2023-04-16T12:13:42.362Z,1.90
2023-04-16T12:17:44.507Z,2.17
2023-04-16T12:21:48.774Z,2.50
2023-04-16T12:25:52.019Z,2.60
2023-04-16T12:30:07.382Z,2.58
2023-04-16T12:34:10.299Z,2.63
2023-04-16T12:38:12.439Z,2.40
2023-04-16T12:42:14.859Z,4.35
2023-04-16T12:46:16.864Z,1.88
2023-04-16T12:50:18.596Z,1.95
2023-04-16T12:54:20.293Z,2.33
2023-04-16T12:58:22.042Z,3.08
2023-04-16T13:02:24.777Z,2.30
2023-04-16T13:06:26.667Z,1.30
2023-04-16T13:10:28.406Z,3.47
2023-04-16T13:14:30.145Z,3.03
2023-04-16T13:18:32.563Z,2.50
2023-04-16T13:22:34.370Z,3.17
2023-04-16T13:26:36.106Z,2.10
2023-04-16T13:30:37.933Z,2.20
2023-04-16T13:34:39.736Z,1.85
2023-04-16T13:38:42.220Z,2.00
2023-04-16T13:42:44.017Z,3.63
2023-04-16T13:46:47.887Z,2.33
2023-04-16T13:50:49.675Z,1.60
2023-04-16T13:54:51.351Z,1.90
2023-04-16T13:58:56.209Z,2.03
2023-04-16T14:02:58.149Z,2.60
2023-04-16T14:07:00.016Z,2.20
2023-04-16T14:11:02.167Z,2.75
2023-04-16T14:15:06.749Z,2.53
2023-04-16T14:19:08.607Z,2.10
2023-04-16T14:23:12.424Z,1.60
2023-04-16T14:27:14.234Z,1.58
2023-04-16T14:31:18.061Z,3.20
2023-04-16T14:35:20.032Z,1.80
2023-04-16T14:39:21.902Z,2.38
2023-04-16T14:43:23.620Z,2.30
2023-04-16T14:47:25.322Z,1.92
2023-04-16T14:51:27.586Z,2.08
2023-04-16T14:55:29.294Z,1.60
2023-04-16T14:59:31.558Z,2.20
2023-04-16T15:03:33.504Z,1.55
2023-04-16T15:07:35.369Z,2.10
2023-04-16T15:11:37.076Z,1.63
2023-04-16T15:15:38.908Z,1.30
2023-04-16T15:19:40.875Z,1.70
2023-04-16T15:23:42.933Z,2.63
2023-04-16T15:27:44.599Z,2.85
2023-04-16T15:31:47.686Z,2.33
2023-04-16T15:35:51.508Z,2.00
2023-04-16T15:39:53.343Z,1.60
2023-04-16T15:43:55.004Z,1.70
2023-04-16T15:47:56.811Z,2.20
2023-04-16T15:51:58.515Z,1.70
2023-04-16T15:56:00.535Z,1.23
2023-04-16T16:00:07.423Z,1.50
2023-04-16T16:04:09.875Z,1.02
2023-04-16T16:08:11.916Z,1.30
2023-04-16T16:12:14.056Z,1.40
2023-04-16T16:16:16.160Z,1.63
2023-04-16T16:20:17.893Z,1.70
2023-04-16T16:24:19.702Z,1.70
2023-04-16T16:28:21.643Z,1.60
2023-04-16T16:32:23.367Z,1.90
2023-04-16T16:36:26.184Z,1.50
2023-04-16T16:40:28.177Z,1.30
2023-04-16T16:44:29.942Z,1.20
2023-04-16T16:48:31.623Z,1.50
2023-04-16T16:52:33.517Z,1.15
2023-04-16T16:56:35.236Z,1.92
2023-04-16T17:00:37.326Z,1.15
2023-04-16T17:04:39.134Z,1.30
2023-04-16T17:08:40.873Z,1.50
2023-04-16T17:12:42.586Z,1.20
2023-04-16T17:16:46.438Z,1.40
2023-04-16T17:20:48.265Z,1.25
2023-04-16T17:24:49.944Z,1.45
2023-04-16T17:28:51.712Z,1.50
2023-04-16T17:32:53.543Z,1.50
2023-04-16T17:36:55.346Z,1.63
2023-04-16T17:40:57.847Z,1.70
2023-04-16T17:44:59.541Z,1.50
2023-04-16T17:49:01.279Z,1.80
2023-04-16T17:53:03.910Z,1.73
2023-04-16T17:57:05.855Z,2.22
2023-04-16T18:01:07.596Z,1.70
2023-04-16T18:05:09.568Z,1.60
2023-04-16T18:09:12.094Z,1.48
2023-04-16T18:13:13.803Z,2.05
2023-04-16T18:17:15.659Z,1.92
2023-04-16T18:21:17.412Z,1.85
2023-04-16T18:25:26.135Z,3.30
2023-04-16T18:29:35.611Z,1.80
2023-04-16T18:37:42.045Z,2.15
2023-04-16T18:41:47.717Z,1.65
2023-04-16T18:45:49.518Z,2.90
2023-04-16T18:49:51.314Z,2.40
2023-04-16T18:53:53.038Z,2.63
2023-04-16T18:57:55.231Z,2.40
2023-04-16T19:01:56.986Z,2.92
2023-04-16T19:05:58.835Z,3.60
2023-04-16T19:10:02.520Z,3.05
2023-04-16T19:14:05.775Z,2.50
2023-04-16T19:18:07.593Z,4.47
2023-04-16T19:22:09.288Z,4.25
2023-04-16T19:26:11.011Z,2.88
2023-04-16T19:30:12.838Z,3.67
2023-04-16T19:34:15.824Z,5.93
2023-04-16T19:38:17.535Z,6.88
2023-04-16T19:42:19.179Z,3.45
2023-04-16T19:46:20.960Z,2.75
2023-04-16T19:50:23.720Z,1.92
2023-04-16T19:54:26.294Z,1.60
2023-04-16T19:58:28.150Z,1.80
2023-04-16T20:02:29.941Z,1.60
2023-04-16T20:06:31.785Z,1.50
2023-04-16T20:10:33.607Z,1.83
2023-04-16T20:14:35.320Z,2.30
2023-04-16T20:18:41.266Z,1.90
2023-04-16T20:22:43.781Z,1.60
2023-04-16T20:26:45.556Z,1.63
2023-04-16T20:30:47.258Z,3.90
2023-04-16T20:34:49.605Z,2.30
2023-04-16T20:38:53.785Z,2.35
2023-04-16T20:42:59.982Z,2.20
2023-04-16T20:47:02.126Z,2.38
2023-04-16T20:51:05.857Z,2.40
2023-04-16T20:55:08.288Z,3.15
2023-04-16T20:59:10.675Z,3.35
2023-04-16T21:03:12.667Z,2.35
2023-04-16T21:07:15.473Z,2.45
2023-04-16T21:11:17.210Z,2.70
2023-04-16T21:15:18.886Z,1.98
2023-04-16T21:19:20.632Z,2.40
2023-04-16T21:23:22.381Z,2.50
2023-04-16T21:27:24.093Z,1.83
2023-04-16T21:31:25.854Z,2.80
2023-04-16T21:35:27.725Z,1.42
2023-04-16T21:39:30.977Z,1.40
2023-04-16T21:43:32.791Z,1.85
2023-04-16T21:47:34.534Z,1.50
2023-04-16T21:51:37.194Z,1.50
2023-04-16T21:55:41.703Z,2.05
2023-04-16T21:59:43.444Z,1.60
2023-04-16T22:03:47.075Z,1.70
2023-04-16T22:07:49.143Z,1.65
2023-04-16T22:11:52.403Z,1.40
2023-04-16T22:15:54.936Z,1.30
2023-04-16T22:19:57.342Z,2.08
2023-04-16T22:23:59.055Z,3.17
2023-04-16T22:28:01.660Z,3.65
2023-04-16T22:32:03.521Z,4.13
2023-04-16T22:36:05.704Z,4.47
2023-04-16T22:40:11.422Z,3.83
2023-04-16T22:44:13.092Z,2.95
2023-04-16T22:48:15.492Z,1.83
2023-04-16T22:52:17.229Z,2.63
2023-04-16T22:56:19.739Z,3.22
2023-04-16T23:00:21.469Z,2.72
2023-04-16T23:04:23.415Z,1.88
2023-04-16T23:08:25.240Z,1.55
2023-04-16T23:12:26.927Z,1.45
2023-04-16T23:16:29.163Z,1.63
2023-04-16T23:20:30.868Z,2.47
2023-04-16T23:24:32.584Z,1.98
2023-04-16T23:28:34.369Z,2.15
2023-04-16T23:32:36.255Z,1.70
2023-04-16T23:36:38.139Z,1.60
2023-04-16T23:40:39.912Z,1.85
2023-04-16T23:44:41.684Z,2.63
2023-04-16T23:48:43.397Z,2.20
2023-04-16T23:52:45.329Z,2.33
2023-04-16T23:56:47.541Z,3.25
